Time;durP1;ratioP1;P1;durP2;ratioP2;P2;SDS_P1;SDS_P2;PMS_P1;PMS_P2;Temp;Humidity;BMP_temperature;BMP_pressure;BME280_temperature;BME280_humidity;BME280_pressure;Samples;Min_cycle;Max_cycle;Signal;HPM_P1;HPM_P2
2023/02/09 00:00:11;;;;;;;34.17;19.60;;;-2.60;99.90;;;-2.72;65.06;102803.28;5052066;28;20214;-64
2023/02/09 00:02:40;;;;;;;36.20;18.40;;;-2.60;99.90;;;-2.72;65.42;102808.31;5050112;28;20214;-64
2023/02/09 00:05:10;;;;;;;38.20;17.63;;;-2.60;99.90;;;-2.77;65.58;102799.44;5043940;28;20237;-63
2023/02/09 00:07:40;;;;;;;34.50;19.10;;;-2.60;99.90;;;-2.74;65.02;102809.81;5047768;28;20212;-64
2023/02/09 00:10:10;;;;;;;35.90;18.77;;;-2.60;99.90;;;-2.77;65.24;102815.47;5051846;28;20202;-65
2023/02/09 00:15:24;;;;;;;37.07;19.37;;;-2.60;99.90;;;-2.79;65.82;102824.56;5043188;28;20240;-66
2023/02/09 00:17:52;;;;;;;31.93;17.63;;;-2.60;99.90;;;-2.81;65.23;102822.66;5048222;28;20291;-65
2023/02/09 00:20:21;;;;;;;35.50;18.83;;;-2.70;99.90;;;-2.82;65.55;102815.84;5049960;28;20229;-63
2023/02/09 00:22:51;;;;;;;36.87;20.10;;;-2.60;99.90;;;-2.82;65.25;102815.84;5044961;28;20252;-64
2023/02/09 00:25:19;;;;;;;39.37;20.00;;;-2.70;99.90;;;-2.82;65.44;102803.22;5048172;28;20283;-65
2023/02/09 00:27:48;;;;;;;34.83;19.07;;;-2.70;99.90;;;-2.85;64.91;102801.31;5047666;28;20557;-64
2023/02/09 00:30:17;;;;;;;37.73;19.00;;;-2.70;99.90;;;-2.87;64.89;102817.06;5051771;28;20672;-63
2023/02/09 00:32:45;;;;;;;37.53;20.27;;;-2.70;99.90;;;-2.89;64.57;102823.63;5047448;28;20847;-68
2023/02/09 00:35:14;;;;;;;42.90;21.03;;;-2.80;99.90;;;-2.92;65.15;102812.50;5045544;28;20202;-65
2023/02/09 00:37:42;;;;;;;40.47;19.87;;;-2.80;99.90;;;-2.92;64.86;102820.06;5059423;28;20229;-63
2023/02/09 00:40:12;;;;;;;38.17;20.50;;;-2.80;99.90;;;-2.93;65.12;102815.78;5043258;28;20202;-67
2023/02/09 00:42:41;;;;;;;40.03;20.83;;;-2.80;99.90;;;-2.93;65.07;102819.94;5049986;28;20647;-63
2023/02/09 00:45:10;;;;;;;38.17;21.40;;;-2.80;99.90;;;-2.95;65.09;102817.28;5049718;28;20624;-63
2023/02/09 00:47:38;;;;;;;39.07;20.67;;;-2.80;99.90;;;-2.96;65.26;102802.91;5051931;28;20654;-67
2023/02/09 00:50:08;;;;;;;38.87;20.00;;;-2.80;99.90;;;-2.97;65.03;102797.72;5047521;28;20241;-65
2023/02/09 00:52:36;;;;;;;41.50;20.23;;;-2.80;99.90;;;-3.00;65.07;102789.88;5048711;28;20267;-66
2023/02/09 00:55:05;;;;;;;37.60;20.43;;;-2.90;99.90;;;-3.01;65.54;102793.16;5057117;28;20259;-66
2023/02/09 00:57:35;;;;;;;38.33;20.73;;;-2.90;99.90;;;-3.04;65.93;102785.34;5051397;28;20218;-65
2023/02/09 01:00:04;;;;;;;37.80;20.03;;;-2.90;99.90;;;-3.04;65.36;102778.66;5051513;28;20206;-65
2023/02/09 01:02:33;;;;;;;31.97;17.90;;;-2.90;99.90;;;-3.05;65.85;102788.63;5050663;28;20642;-65
2023/02/09 01:05:02;;;;;;;37.90;18.63;;;-2.90;99.90;;;-3.09;65.74;102762.25;5049067;28;20629;-67
2023/02/09 01:07:31;;;;;;;33.20;17.67;;;-3.00;99.90;;;-3.11;65.76;102766.25;5045697;28;20618;-66
2023/02/09 01:10:01;;;;;;;37.50;18.40;;;-3.00;99.90;;;-3.13;65.72;102761.81;5043028;28;20229;-65
2023/02/09 01:12:31;;;;;;;38.00;18.70;;;-3.00;99.90;;;-3.19;66.24;102760.53;5044724;28;20651;-64
2023/02/09 01:15:01;;;;;;;36.23;18.77;;;-3.00;99.90;;;-3.19;66.13;102759.66;5050896;28;20210;-64
2023/02/09 01:17:30;;;;;;;39.07;19.33;;;-3.00;99.90;;;-3.21;65.83;102753.59;5050786;28;20197;-65
2023/02/09 01:19:58;;;;;;;36.13;19.97;;;-3.10;99.90;;;-3.20;66.09;102750.34;5050830;28;21691;-65
2023/02/09 01:22:27;;;;;;;35.57;19.40;;;-3.00;99.90;;;-3.20;66.69;102761.31;5054188;28;20201;-64
2023/02/09 01:24:56;;;;;;;41.17;21.53;;;-3.10;99.90;;;-3.22;66.50;102757.75;5048511;28;20263;-64
2023/02/09 01:27:24;;;;;;;42.87;20.47;;;-3.10;99.90;;;-3.24;66.17;102739.09;5053647;28;20240;-66
2023/02/09 01:29:52;;;;;;;40.03;21.50;;;-3.10;99.90;;;-3.23;66.16;102747.53;5048952;28;20238;-66
2023/02/09 01:32:22;;;;;;;36.70;19.83;;;-3.10;99.90;;;-3.24;66.49;102739.09;5052022;28;20202;-66
2023/02/09 01:34:52;;;;;;;39.87;20.60;;;-3.10;99.90;;;-3.22;66.52;102736.69;5053171;28;20214;-66
2023/02/09 01:37:21;;;;;;;38.00;20.47;;;-3.10;99.90;;;-3.22;66.04;102731.66;5048953;28;20229;-67
2023/02/09 01:39:49;;;;;;;38.93;19.90;;;-3.10;99.90;;;-3.22;66.30;102730.00;5053202;28;20697;-65
2023/02/09 01:42:20;;;;;;;37.00;20.50;;;-3.10;99.90;;;-3.23;66.50;102723.22;5047018;28;20214;-65
2023/02/09 01:45:23;;;;;;;38.47;20.60;;;-3.10;99.90;;;-3.24;66.47;102725.59;5054206;28;20209;-66
2023/02/09 01:47:58;;;;;;;34.80;19.70;;;-3.10;99.90;;;-3.25;66.55;102718.78;5044040;28;20244;-66
2023/02/09 01:50:29;;;;;;;38.97;19.43;;;-3.10;99.90;;;-3.28;66.38;102721.03;5045990;28;20251;-66
2023/02/09 01:52:57;;;;;;;39.47;20.63;;;-3.20;99.90;;;-3.30;66.34;102710.81;5054430;28;20622;-65
2023/02/09 01:55:29;;;;;;;41.83;20.17;;;-3.20;99.90;;;-3.33;66.62;102702.97;5053939;28;20206;-66
2023/02/09 01:58:03;;;;;;;40.03;20.63;;;-3.20;99.90;;;-3.33;66.95;102692.03;5046532;28;20689;-66
2023/02/09 02:00:32;;;;;;;38.77;19.70;;;-3.20;99.90;;;-3.36;66.87;102699.31;5053636;28;20205;-65
2023/02/09 02:03:05;;;;;;;44.47;20.83;;;-3.20;99.90;;;-3.38;67.12;102688.22;5051859;28;20263;-63
2023/02/09 02:05:38;;;;;;;40.63;19.97;;;-3.20;99.90;;;-3.42;67.24;102680.41;5045456;28;20237;-65
2023/02/09 02:08:16;;;;;;;38.67;20.97;;;-3.20;99.90;;;-3.43;66.73;102678.59;5053201;28;20210;-68
2023/02/09 02:10:45;;;;;;;36.37;18.93;;;-3.30;99.90;;;-3.47;66.97;102670.66;5052185;28;20264;-66
2023/02/09 02:13:14;;;;;;;38.77;20.17;;;-3.30;99.90;;;-3.48;67.14;102666.38;5053068;28;20280;-65
2023/02/09 02:15:54;;;;;;;41.40;21.53;;;-3.30;99.90;;;-3.42;67.50;102671.97;5054406;28;20244;-64
2023/02/09 02:18:50;;;;;;;42.03;20.07;;;-3.20;99.90;;;-3.43;67.09;102660.97;5049538;28;20253;-64
2023/02/09 02:22:08;;;;;;;37.67;20.07;;;-3.30;99.90;;;-3.40;67.18;102658.72;5042267;28;20264;-66
2023/02/09 02:25:42;;;;;;;35.20;18.83;;;-3.20;99.90;;;-3.38;67.50;102655.47;5054235;28;20654;-66
2023/02/09 02:28:33;;;;;;;37.63;20.03;;;-3.30;99.90;;;-3.40;67.34;102645.22;5029323;28;20232;-67
2023/02/09 02:31:57;;;;;;;36.53;17.60;;;-3.30;99.90;;;-3.43;67.48;102644.97;5050036;28;20280;-66
2023/02/09 02:34:37;;;;;;;43.30;19.57;;;-3.20;99.90;;;-3.42;67.45;102639.19;5038989;28;20252;-66
2023/02/09 02:37:18;;;;;;;39.57;19.10;;;-3.20;99.90;;;-3.44;66.91;102628.97;5046931;28;20289;-63
2023/02/09 02:39:58;;;;;;;40.80;18.37;;;-3.30;99.90;;;-3.47;67.59;102628.69;5052395;28;20229;-65
2023/02/09 02:42:50;;;;;;;35.80;18.67;;;-3.30;99.90;;;-3.47;66.82;102638.78;5052738;28;20206;-66
2023/02/09 02:45:34;;;;;;;35.30;18.63;;;-3.30;99.90;;;-3.49;67.43;102632.72;5040218;28;20198;-65
2023/02/09 02:48:17;;;;;;;35.40;19.00;;;-3.30;99.90;;;-3.48;67.49;102631.09;5051322;28;20205;-64
2023/02/09 02:50:54;;;;;;;34.13;18.13;;;-3.30;99.90;;;-3.45;67.12;102626.31;5050655;28;20663;-65
2023/02/09 02:53:28;;;;;;;36.07;20.00;;;-3.20;99.90;;;-3.43;67.14;102632.34;5049477;28;20206;-65
2023/02/09 02:56:01;;;;;;;32.73;18.00;;;-3.20;99.90;;;-3.41;67.21;102616.63;5043277;28;20252;-65
2023/02/09 02:58:31;;;;;;;35.80;17.93;;;-3.30;99.90;;;-3.38;67.33;102613.50;5051621;28;20850;-68
2023/02/09 03:01:01;;;;;;;33.40;18.50;;;-3.20;99.90;;;-3.32;67.26;102610.59;5052233;28;20241;-63
2023/02/09 03:03:34;;;;;;;33.30;18.43;;;-3.20;99.90;;;-3.32;67.16;102603.03;5050392;28;20201;-66
2023/02/09 03:06:06;;;;;;;39.50;19.00;;;-3.20;99.90;;;-3.27;66.69;102601.81;5051507;28;20555;-64
2023/02/09 03:08:50;;;;;;;34.07;17.67;;;-3.10;99.90;;;-3.26;67.24;102598.53;5050740;28;20209;-63
2023/02/09 03:11:20;;;;;;;35.77;18.33;;;-3.10;99.90;;;-3.24;66.96;102595.41;5051846;28;20198;-64
2023/02/09 03:14:11;;;;;;;37.80;18.60;;;-3.10;99.90;;;-3.22;66.85;102591.34;5052219;28;20620;-63
2023/02/09 03:16:46;;;;;;;35.77;18.90;;;-3.10;99.90;;;-3.25;66.55;102590.19;5051555;28;20249;-65
2023/02/09 03:19:31;;;;;;;38.70;20.67;;;-3.10;99.90;;;-3.29;66.57;102573.06;5051339;28;20249;-63
2023/02/09 03:22:07;;;;;;;39.67;18.50;;;-3.00;99.90;;;-3.32;66.19;102568.63;5051923;28;20263;-64
2023/02/09 03:24:50;;;;;;;34.60;18.50;;;-3.20;99.90;;;-3.33;66.87;102583.63;5048446;28;20197;-64
2023/02/09 03:27:22;;;;;;;33.43;19.87;;;-3.20;99.90;;;-3.39;66.30;102576.41;5047484;28;20205;-65
2023/02/09 03:29:57;;;;;;;39.70;20.13;;;-3.20;99.90;;;-3.43;66.51;102582.84;5048516;28;20287;-64
2023/02/09 03:32:27;;;;;;;37.63;19.03;;;-3.30;99.90;;;-3.47;66.62;102582.44;5050879;28;20201;-65
2023/02/09 03:34:58;;;;;;;42.53;20.07;;;-3.30;99.90;;;-3.52;66.81;102584.56;5048199;28;20206;-63
2023/02/09 03:37:27;;;;;;;37.30;19.77;;;-3.30;99.90;;;-3.56;66.78;102577.50;5051947;28;20194;-63
2023/02/09 03:39:56;;;;;;;39.07;19.93;;;-3.40;99.90;;;-3.55;66.70;102584.31;5051820;28;20681;-66
2023/02/09 03:42:24;;;;;;;35.67;19.07;;;-3.40;99.90;;;-3.54;66.60;102586.06;5050977;28;20706;-62
2023/02/09 03:44:53;;;;;;;42.07;19.63;;;-3.40;99.90;;;-3.53;67.29;102592.91;5050204;28;20224;-65
2023/02/09 03:47:21;;;;;;;35.93;19.40;;;-3.40;99.90;;;-3.54;66.61;102586.06;5049181;28;20257;-64
2023/02/09 03:49:49;;;;;;;34.67;19.00;;;-3.40;99.90;;;-3.54;66.91;102593.63;5051314;28;20206;-65
2023/02/09 03:52:19;;;;;;;37.57;19.10;;;-3.40;99.90;;;-3.54;66.93;102590.22;5050672;28;20209;-65
2023/02/09 03:54:48;;;;;;;40.30;19.83;;;-3.40;99.90;;;-3.53;67.03;102597.94;5051692;28;20205;-66
2023/02/09 03:57:16;;;;;;;35.13;18.93;;;-3.30;99.90;;;-3.54;66.91;102581.03;5042421;28;20655;-63
2023/02/09 03:59:45;;;;;;;40.30;19.40;;;-3.40;99.90;;;-3.53;66.60;102585.34;5052410;28;20657;-64
2023/02/09 04:02:13;;;;;;;32.40;18.20;;;-3.40;99.90;;;-3.56;66.56;102590.13;5051698;28;20259;-64
2023/02/09 04:04:42;;;;;;;39.30;20.33;;;-3.40;99.90;;;-3.53;66.22;102582.81;5051963;28;20210;-65
2023/02/09 04:07:11;;;;;;;39.40;19.37;;;-3.40;99.90;;;-3.53;67.13;102587.84;5048544;28;20206;-64
2023/02/09 04:09:41;;;;;;;41.03;19.33;;;-3.40;99.90;;;-3.54;66.58;102577.63;5050255;28;20202;-63
2023/02/09 04:12:09;;;;;;;38.50;19.07;;;-3.40;99.90;;;-3.53;66.86;102577.78;5052350;28;20582;-64
2023/02/09 04:14:38;;;;;;;34.20;18.57;;;-3.40;99.90;;;-3.59;66.85;102577.25;5049567;28;20726;-65
2023/02/09 04:17:06;;;;;;;39.73;20.37;;;-3.40;99.90;;;-3.60;66.75;102579.66;5048087;28;20202;-64
2023/02/09 04:19:34;;;;;;;34.90;18.60;;;-3.40;99.90;;;-3.65;66.71;102587.66;5048104;28;20268;-66
2023/02/09 04:22:03;;;;;;;36.63;19.97;;;-3.50;99.90;;;-3.62;67.08;102583.66;5050907;28;20253;-66
2023/02/09 04:24:31;;;;;;;37.20;19.33;;;-3.50;99.90;;;-3.60;66.88;102574.59;5050543;28;20771;-66
2023/02/09 04:27:01;;;;;;;37.00;20.00;;;-3.40;99.90;;;-3.61;67.05;102578.72;5050207;28;20237;-66
2023/02/09 04:29:29;;;;;;;40.33;20.80;;;-3.40;99.90;;;-3.60;66.87;102572.97;5049382;28;20587;-65
2023/02/09 04:31:58;;;;;;;36.60;19.93;;;-3.40;99.90;;;-3.59;66.81;102576.38;5051900;28;20256;-65
2023/02/09 04:34:26;;;;;;;42.03;20.73;;;-3.40;99.90;;;-3.63;66.91;102575.22;5047549;28;20758;-66
2023/02/09 04:36:55;;;;;;;36.93;19.43;;;-3.40;99.90;;;-3.60;67.04;102567.03;5048062;28;20205;-65
2023/02/09 04:39:23;;;;;;;37.57;19.03;;;-3.40;99.90;;;-3.60;66.75;102567.94;5048656;28;20259;-65
2023/02/09 04:41:52;;;;;;;39.23;19.43;;;-3.40;99.90;;;-3.56;66.75;102564.03;5042285;28;20218;-65
2023/02/09 04:44:22;;;;;;;34.10;18.97;;;-3.40;99.90;;;-3.55;66.90;102554.06;5049936;28;20210;-65
2023/02/09 04:46:50;;;;;;;42.77;20.03;;;-3.40;99.90;;;-3.49;67.24;102568.84;5049665;28;20240;-66
2023/02/09 04:49:18;;;;;;;37.80;19.77;;;-3.40;99.90;;;-3.45;66.76;102568.34;5049896;28;20205;-65
2023/02/09 04:51:47;;;;;;;38.47;20.33;;;-3.30;99.90;;;-3.44;66.99;102568.47;5048281;28;20287;-66
2023/02/09 04:54:15;;;;;;;43.50;19.60;;;-3.30;99.90;;;-3.40;66.88;102567.97;5042452;28;20210;-66
2023/02/09 04:56:43;;;;;;;34.43;19.80;;;-3.30;99.90;;;-3.42;66.37;102561.06;5052198;28;20620;-65
2023/02/09 05:02:11;;;;;;;39.93;20.23;;;-3.30;99.90;;;-3.40;66.29;102559.53;5011925;28;20203;-66
2023/02/09 05:04:39;;;;;;;34.33;18.57;;;-3.30;99.90;;;-3.38;65.71;102557.16;5047850;28;20202;-65
2023/02/09 05:07:07;;;;;;;37.90;19.43;;;-3.30;99.90;;;-3.41;66.13;102552.75;5053224;28;20826;-64
2023/02/09 05:09:36;;;;;;;43.23;20.63;;;-3.30;99.90;;;-3.44;65.58;102547.44;5054419;28;20213;-65
2023/02/09 05:12:08;;;;;;;36.50;19.40;;;-3.30;99.90;;;-3.47;66.00;102555.59;5053730;28;20202;-66
2023/02/09 05:14:37;;;;;;;40.07;20.10;;;-3.40;99.90;;;-3.53;66.12;102550.06;5054166;28;20198;-65
2023/02/09 05:17:06;;;;;;;38.10;19.67;;;-3.40;99.90;;;-3.59;66.03;102551.16;5054453;28;20269;-66
2023/02/09 05:19:36;;;;;;;35.47;19.53;;;-3.50;99.90;;;-3.64;66.40;102548.25;5051727;28;20210;-65
2023/02/09 05:22:04;;;;;;;31.80;17.90;;;-3.50;99.90;;;-3.70;66.63;102545.22;5051598;28;20205;-66
2023/02/09 05:24:33;;;;;;;35.37;17.77;;;-3.60;99.90;;;-3.72;66.44;102550.13;5052787;28;20636;-63
2023/02/09 05:27:01;;;;;;;39.80;20.03;;;-3.60;99.90;;;-3.77;66.57;102545.44;5046268;28;20659;-65
2023/02/09 05:29:30;;;;;;;38.87;20.57;;;-3.60;99.90;;;-3.80;66.64;102555.22;5054728;28;20222;-64
2023/02/09 05:31:58;;;;;;;37.47;18.23;;;-3.70;99.90;;;-3.84;67.40;102551.56;5050303;28;20209;-63
2023/02/09 05:34:27;;;;;;;32.40;19.13;;;-3.70;99.90;;;-3.88;67.09;102552.94;5053883;28;20446;-64
2023/02/09 05:36:56;;;;;;;36.33;18.97;;;-3.70;99.90;;;-3.91;66.76;102550.13;5053720;28;20220;-64
2023/02/09 05:39:25;;;;;;;40.03;19.67;;;-3.80;99.90;;;-3.91;67.01;102549.25;5053518;28;20198;-66
2023/02/09 05:44:39;;;;;;;37.43;19.67;;;-3.80;99.90;;;-3.99;67.55;102551.13;5053808;28;20216;-64
2023/02/09 05:47:07;;;;;;;32.63;17.87;;;-3.90;99.90;;;-4.02;67.31;102543.28;5050367;28;20206;-65
2023/02/09 05:49:36;;;;;;;33.17;17.93;;;-3.90;99.90;;;-4.06;67.52;102546.28;5053866;28;20264;-65
2023/02/09 05:52:06;;;;;;;37.17;19.77;;;-3.90;99.90;;;-4.09;68.12;102538.47;5050561;28;20201;-64
2023/02/09 05:54:35;;;;;;;36.63;18.43;;;-3.90;99.90;;;-4.13;67.79;102538.94;5051692;28;20202;-64
2023/02/09 05:57:04;;;;;;;34.97;18.53;;;-4.00;99.90;;;-4.15;68.55;102540.47;5054277;28;20268;-65
2023/02/09 05:59:32;;;;;;;35.47;18.90;;;-3.90;99.90;;;-4.13;68.08;102537.31;5054436;28;20212;-64
2023/02/09 06:02:01;;;;;;;35.10;19.20;;;-4.00;99.90;;;-4.15;67.82;102535.44;5040057;28;20229;-65
2023/02/09 06:04:30;;;;;;;39.60;20.93;;;-4.00;99.90;;;-4.17;68.15;102535.28;5051067;28;20272;-64
2023/02/09 06:06:59;;;;;;;36.27;18.87;;;-4.00;99.90;;;-4.16;68.27;102523.56;5047533;28;20692;-65
2023/02/09 06:09:29;;;;;;;39.47;18.97;;;-4.00;99.90;;;-4.14;68.43;102527.13;5052201;28;20659;-63
2023/02/09 06:11:58;;;;;;;41.73;19.77;;;-4.00;99.90;;;-4.15;68.31;102521.22;5051061;28;20564;-63
2023/02/09 06:14:26;;;;;;;40.87;20.13;;;-4.00;99.90;;;-4.11;68.63;102529.03;5052968;28;20688;-64
2023/02/09 06:16:55;;;;;;;35.53;19.03;;;-3.90;99.90;;;-4.10;68.42;102526.63;5047850;28;20252;-63
2023/02/09 06:19:24;;;;;;;34.73;18.40;;;-3.90;99.90;;;-4.10;68.37;102530.78;5045910;28;20214;-63
2023/02/09 06:21:52;;;;;;;38.53;19.17;;;-3.90;99.90;;;-4.13;68.12;102534.78;5053271;28;20230;-65
2023/02/09 06:24:21;;;;;;;33.93;19.27;;;-4.00;99.90;;;-4.15;68.01;102525.38;5053163;28;20648;-64
2023/02/09 06:26:50;;;;;;;39.00;19.67;;;-4.00;99.90;;;-4.16;68.54;102523.56;5051608;28;20210;-63
2023/02/09 06:29:19;;;;;;;33.50;18.57;;;-4.00;99.90;;;-4.18;68.54;102520.94;5051855;28;20226;-63
2023/02/09 06:31:47;;;;;;;33.43;18.63;;;-4.00;99.90;;;-4.17;68.79;102529.38;5048202;28;20299;-68
2023/02/09 06:34:16;;;;;;;41.63;19.37;;;-4.00;99.90;;;-4.12;68.71;102525.63;5051322;28;20314;-63
2023/02/09 06:36:44;;;;;;;37.80;18.80;;;-3.90;99.90;;;-4.09;68.91;102527.50;5051443;28;20206;-64
2023/02/09 06:39:13;;;;;;;36.23;19.07;;;-3.90;99.90;;;-4.06;68.38;102536.22;5053550;28;20449;-63
2023/02/09 06:41:41;;;;;;;34.37;18.97;;;-3.90;99.90;;;-4.05;68.08;102532.97;5047829;28;20261;-65
2023/02/09 06:44:11;;;;;;;36.50;18.40;;;-3.90;99.90;;;-4.04;68.30;102527.19;5051230;28;20206;-65
2023/02/09 06:46:40;;;;;;;38.53;20.53;;;-3.80;99.90;;;-4.04;68.16;102527.19;5051377;28;20202;-64
2023/02/09 06:49:08;;;;;;;34.93;18.20;;;-3.90;99.90;;;-4.06;68.54;102518.59;5049272;28;20202;-64
2023/02/09 06:51:37;;;;;;;42.57;20.40;;;-3.80;99.90;;;-4.04;68.35;102523.78;5052189;28;20218;-64
2023/02/09 06:54:06;;;;;;;33.97;19.47;;;-3.80;99.90;;;-4.02;68.40;102518.09;5055603;28;20216;-63
2023/02/09 06:56:34;;;;;;;40.73;20.70;;;-3.80;99.90;;;-4.00;67.85;102529.22;5052074;28;20299;-64
2023/02/09 06:59:03;;;;;;;36.23;19.90;;;-3.80;99.90;;;-3.96;68.32;102528.72;5054904;28;20210;-66
2023/02/09 07:01:32;;;;;;;40.60;21.27;;;-3.80;99.90;;;-3.89;68.13;102515.91;5051546;28;20289;-64
2023/02/09 07:04:01;;;;;;;38.67;18.43;;;-3.60;99.90;;;-3.76;68.41;102520.34;5053188;28;20209;-63
2023/02/09 07:06:30;;;;;;;38.77;19.77;;;-3.50;99.90;;;-3.57;67.94;102521.94;5048909;28;20233;-65
2023/02/09 07:08:58;;;;;;;42.47;22.47;;;-3.40;99.90;;;-3.27;67.61;102519.50;5052225;28;20206;-63
2023/02/09 07:11:26;;;;;;;38.77;20.03;;;-3.10;99.90;;;-2.97;66.63;102512.72;5048647;28;20202;-66
2023/02/09 07:13:55;;;;;;;38.97;19.20;;;-2.80;99.90;;;-2.74;66.07;102512.94;5052467;28;20205;-62
2023/02/09 07:16:23;;;;;;;38.57;19.97;;;-2.50;99.90;;;-2.63;64.53;102526.44;5053237;28;20236;-64
2023/02/09 07:18:53;;;;;;;44.27;21.23;;;-2.50;99.90;;;-2.57;64.20;102516.84;5050645;28;20241;-63
2023/02/09 07:21:22;;;;;;;39.93;19.90;;;-2.40;99.90;;;-2.50;64.53;102519.13;5048039;28;20252;-64
2023/02/09 07:23:52;;;;;;;40.07;22.03;;;-2.30;99.90;;;-2.38;64.03;102519.22;5050336;28;20214;-63
2023/02/09 07:26:20;;;;;;;38.63;19.70;;;-2.10;99.90;;;-2.26;63.60;102522.72;5050257;28;20206;-66
2023/02/09 07:28:51;;;;;;;46.43;22.50;;;-2.00;99.90;;;-2.12;63.57;102523.81;5046749;28;20217;-65
2023/02/09 07:31:19;;;;;;;38.70;21.17;;;-1.90;99.90;;;-1.99;63.24;102515.56;5052096;28;20218;-68
2023/02/09 07:33:48;;;;;;;38.77;20.07;;;-1.70;99.90;;;-1.86;63.07;102508.19;5052690;28;20237;-64
2023/02/09 07:36:18;;;;;;;38.57;20.93;;;-1.60;99.90;;;-1.63;62.99;102511.63;5052514;28;20252;-65
2023/02/09 07:38:47;;;;;;;34.60;19.10;;;-1.40;99.90;;;-1.32;62.26;102514.88;5049547;28;20209;-66
2023/02/09 07:41:19;;;;;;;40.80;20.23;;;-1.00;99.90;;;-1.12;61.32;102509.66;5051754;28;20288;-66
2023/02/09 07:43:47;;;;;;;37.03;20.27;;;-0.90;99.90;;;-0.85;60.43;102507.41;5051783;28;20206;-66
2023/02/09 07:46:19;;;;;;;43.03;21.30;;;-0.70;99.90;;;-0.61;59.19;102511.75;5052081;28;20276;-65
2023/02/09 07:48:48;;;;;;;40.03;21.17;;;-0.50;99.90;;;-0.42;58.91;102510.56;5052789;28;20198;-66
2023/02/09 07:51:23;;;;;;;40.43;22.03;;;-0.30;99.90;;;-0.29;58.12;102496.38;5049817;28;20210;-62
2023/02/09 07:53:53;;;;;;;41.50;20.63;;;-0.20;99.90;;;-0.18;57.34;102499.69;5050051;28;20255;-68
2023/02/09 07:56:22;;;;;;;42.20;21.90;;;0.00;99.90;;;-0.17;56.91;102496.34;5047694;28;20244;-64
2023/02/09 07:58:53;;;;;;;36.03;22.03;;;0.00;99.90;;;-0.11;56.92;102495.91;5045689;28;20217;-67
2023/02/09 08:01:22;;;;;;;38.47;21.37;;;0.10;99.90;;;-0.02;56.94;102494.03;5046998;28;20218;-64
2023/02/09 08:03:51;;;;;;;37.00;21.13;;;0.30;99.90;;;0.15;56.63;102490.16;5050945;28;20201;-65
2023/02/09 08:06:27;;;;;;;39.87;21.80;;;0.40;99.90;;;0.30;55.92;102492.88;5048458;28;20256;-65
2023/02/09 08:09:10;;;;;;;41.50;20.40;;;0.50;99.90;;;0.54;55.21;102502.16;5041757;28;20297;-66
2023/02/09 08:11:43;;;;;;;40.77;21.03;;;0.70;99.90;;;0.83;54.57;102494.00;5050802;28;20202;-65
2023/02/09 08:14:17;;;;;;;39.37;21.37;;;1.00;99.90;;;1.04;53.58;102499.63;5047637;28;20202;-65
2023/02/09 08:16:47;;;;;;;43.80;21.53;;;1.30;99.90;;;1.11;52.41;102489.09;5051175;28;20214;-67
2023/02/09 08:19:20;;;;;;;35.50;20.00;;;1.30;99.90;;;1.09;52.25;102484.69;5046006;28;20273;-65
2023/02/09 08:21:51;;;;;;;38.67;20.70;;;1.20;99.90;;;1.16;52.39;102484.31;5050969;28;20210;-63
2023/02/09 08:24:21;;;;;;;37.40;20.17;;;1.30;99.90;;;1.24;52.43;102480.63;5050583;28;20193;-67
2023/02/09 08:26:49;;;;;;;38.37;21.47;;;1.40;99.90;;;1.25;52.12;102477.28;5047934;28;20210;-66
2023/02/09 08:29:18;;;;;;;39.07;21.77;;;1.50;99.90;;;1.18;51.74;102476.03;5044145;28;20686;-70
2023/02/09 08:31:47;;;;;;;43.40;22.33;;;1.40;99.90;;;1.16;51.07;102471.63;5050204;28;20245;-64
2023/02/09 08:34:15;;;;;;;38.93;19.87;;;1.30;99.90;;;1.23;51.64;102466.16;5046501;28;20244;-62
2023/02/09 08:36:43;;;;;;;38.70;21.17;;;1.40;99.90;;;1.32;51.12;102459.13;5043702;28;20555;-67
2023/02/09 08:39:13;;;;;;;37.17;21.43;;;1.40;99.90;;;1.34;51.00;102460.13;5040773;28;20281;-64
2023/02/09 08:41:42;;;;;;;36.77;21.40;;;1.50;99.90;;;1.38;50.66;102459.53;5048306;28;20261;-64
2023/02/09 08:44:15;;;;;;;43.63;22.57;;;1.50;99.90;;;1.41;50.17;102464.81;5065943;28;20646;-68
2023/02/09 08:46:44;;;;;;;40.27;21.67;;;1.50;99.90;;;1.52;50.56;102451.94;5039454;28;20249;-66
2023/02/09 08:49:13;;;;;;;39.63;21.80;;;1.70;99.90;;;1.71;50.37;102457.38;5041588;28;20202;-67
2023/02/09 08:51:41;;;;;;;43.50;23.53;;;1.80;99.90;;;1.89;50.46;102456.00;5047114;28;20260;-64
2023/02/09 08:54:10;;;;;;;42.03;22.17;;;2.00;99.90;;;2.12;50.32;102461.63;5039699;28;20202;-71
2023/02/09 08:56:41;;;;;;;40.40;22.20;;;2.30;99.90;;;2.36;49.27;102452.97;5044354;28;20209;-66
2023/02/09 08:59:10;;;;;;;39.00;22.53;;;2.50;99.90;;;2.57;49.17;102458.44;5048477;28;20213;-68
2023/02/09 09:01:39;;;;;;;47.63;23.33;;;2.70;99.90;;;2.76;49.15;102450.25;5049934;28;20209;-68
2023/02/09 09:04:08;;;;;;;41.73;22.83;;;3.00;99.90;;;3.10;51.42;102459.84;5039377;28;20253;-66
2023/02/09 09:06:37;;;;;;;41.10;21.70;;;3.20;99.90;;;3.56;49.27;102437.81;5049650;28;20237;-67
2023/02/09 09:09:06;;;;;;;44.47;22.53;;;3.70;99.90;;;5.42;47.07;102432.09;5045978;28;20225;-69
2023/02/09 09:11:35;;;;;;;41.77;24.07;;;5.70;99.90;;;8.13;40.62;102426.50;5043946;28;20305;-65
2023/02/09 09:14:04;;;;;;;38.97;21.37;;;8.10;98.00;;;11.20;34.23;102420.44;5050368;28;20275;-66
2023/02/09 09:16:33;;;;;;;39.70;22.13;;;10.70;88.20;;;13.72;29.24;102414.03;5049385;28;20213;-68
2023/02/09 09:19:03;;;;;;;32.57;22.27;;;12.70;73.00;;;16.05;25.71;102406.53;5044390;28;20202;-68
2023/02/09 09:21:33;;;;;;;38.13;23.73;;;15.00;60.60;;;18.06;22.68;102399.53;5043392;28;20214;-68
2023/02/09 09:24:01;;;;;;;37.57;24.23;;;17.00;56.20;;;19.89;20.98;102411.09;5048607;28;20222;-68
2023/02/09 09:26:30;;;;;;;32.85;22.35;;;19.00;51.70;;;20.86;18.93;102403.59;5047517;28;20202;-70
2023/02/09 09:28:58;;;;;;;35.42;23.73;;;20.00;46.20;;;22.09;17.95;102402.13;5048466;28;20871;-68
2023/02/09 09:31:32;;;;;;;35.47;22.10;;;21.60;44.60;;;23.08;16.84;102392.78;5050571;28;20234;-68
2023/02/09 09:34:00;;;;;;;34.67;22.52;;;22.70;42.20;;;23.89;15.78;102395.78;5051026;28;20213;-67
2023/02/09 09:36:30;;;;;;;29.98;21.42;;;23.50;39.70;;;24.82;15.46;102392.00;5048403;28;20210;-67
2023/02/09 09:38:59;;;;;;;27.15;20.80;;;24.50;38.70;;;25.96;14.12;102387.03;5045505;28;20593;-69
2023/02/09 09:41:33;;;;;;;29.15;21.88;;;25.30;36.50;;;26.74;13.60;102383.88;5047789;28;20210;-68
2023/02/09 09:44:03;;;;;;;31.63;22.85;;;26.20;35.80;;;26.87;13.04;102381.56;5055165;28;20218;-67
2023/02/09 09:46:39;;;;;;;31.25;22.65;;;26.40;34.30;;;26.83;12.88;102385.28;5051177;28;20241;-68
2023/02/09 09:49:23;;;;;;;30.92;22.42;;;26.50;33.10;;;26.95;12.74;102383.88;5051084;28;20206;-66
2023/02/09 09:51:57;;;;;;;30.42;21.85;;;26.30;32.80;;;27.77;12.50;102379.38;5050863;28;20249;-70
2023/02/09 09:54:30;;;;;;;32.33;23.10;;;27.20;32.90;;;28.40;11.65;102377.25;5051590;28;20205;-69
2023/02/09 09:56:59;;;;;;;29.85;22.58;;;27.90;31.60;;;29.12;11.34;102372.72;5049530;28;20202;-68
2023/02/09 09:59:33;;;;;;;31.90;22.08;;;28.20;31.00;;;29.71;11.02;102354.50;5048697;28;20237;-68
2023/02/09 10:02:18;;;;;;;28.38;21.45;;;28.80;30.70;;;30.64;10.31;102350.97;5054610;28;20524;-69
2023/02/09 10:04:48;;;;;;;26.20;19.95;;;29.30;30.20;;;31.51;10.47;102350.97;5044053;28;20227;-73
2023/02/09 10:07:20;;;;;;;31.20;20.90;;;30.20;29.80;;;32.29;9.44;102355.69;5048840;28;20205;-69
2023/02/09 10:09:57;;;;;;;24.38;19.00;;;31.00;29.00;;;32.55;8.69;102344.19;5050811;28;20252;-70
2023/02/09 10:12:40;;;;;;;26.55;20.50;;;30.90;27.90;;;32.90;9.01;102332.88;5049151;28;20223;-70
2023/02/09 10:15:26;;;;;;;25.00;20.70;;;31.40;28.00;;;33.30;8.41;102322.06;5038868;28;20251;-72
2023/02/09 10:17:56;;;;;;;25.88;20.20;;;31.80;27.60;;;33.58;8.35;102311.13;5047079;28;20202;-72
2023/02/09 10:20:46;;;;;;;23.60;20.02;;;32.30;27.30;;;33.42;8.45;102315.81;5047382;28;20202;-67
2023/02/09 10:23:25;;;;;;;25.45;19.50;;;32.20;27.30;;;33.32;8.31;102306.75;5038742;28;20226;-68
2023/02/09 10:26:00;;;;;;;23.23;19.45;;;31.80;26.80;;;33.35;7.80;102299.38;5044934;28;20905;-70